Terminal Aerodrome Forecast
Issued by NWS

Home | Current Version | Previous Version | Text Only | Print | Product List | Glossary On
Versions: 1 2 3 4 5 6 7 8 9 10 11 12 13 14 15 16 17 18 19 20 21 22 23 24 25 26 27 28
000
FTUS41 KILN 170500
TAFLUK
TAF
KLUK 170534Z 1706/1806 00000KT P6SM SKC
     FM170700 00000KT 2SM BR SKC
     FM170800 00000KT 1/4SM FG VV001
     FM171200 00000KT 1SM BR SCT001 SCT035
     FM171300 VRB03KT P6SM SKC
     FM171800 26004KT P6SM SCT035 BKN120
     FM172300 VRB02KT P6SM BKN100=

USA.gov is the U.S. government's official web portal to all federal, state and local government web resources and services.